X  Fermer Données météorologiques d'aviation de Metar        LYNI Nis Airport
Température
9°C Température
7°C Point de rosée
87% Humidité



Vent
9 MPH
15 KM/H
4 M/S
8 KTS



330°
NNO
Conditions actuelles

Mostly Cloudy with Light Rain Plutôt nuageux , Légère Pluie
Pression 1009 (hPa) - 29.8 (inHg)
Visibilité 6 (mile) - 10 (km)
Aéroport
Code de l'aéroport LYNI

Emplacement: Nis Airport
Distance: 63 (mi)

Metar:
METAR LYNI 250800Z 33008KT 9999 -RA FEW013 BKN047 09/07 Q1009 NOSIG

Temps: 25-04-2024 10:00 CEST